Time;durP1;ratioP1;P1;durP2;ratioP2;P2;SDS_P1;SDS_P2;PMS_P1;PMS_P2;Temp;Humidity;BMP_temperature;BMP_pressure;BME280_temperature;BME280_humidity;BME280_pressure;Samples;Min_cycle;Max_cycle;Signal;HPM_P1;HPM_P2
2022/03/02 00:00:33;;;;;;;27.00;20.00;;;;;;;6.84;53.44;102500.06;5000850;28;20186;-65
2022/03/02 00:02:58;;;;;;;29.33;20.80;;;;;;;6.42;54.07;102502.97;5000894;28;20187;-65
2022/03/02 00:05:24;;;;;;;26.50;20.43;;;;;;;6.65;53.80;102501.63;5001160;28;20460;-65
2022/03/02 00:07:50;;;;;;;25.30;19.60;;;;;;;6.87;53.56;102501.13;5000389;28;20219;-67
2022/03/02 00:10:15;;;;;;;28.00;20.50;;;;;;;6.95;53.14;102505.81;5000673;28;20431;-65
2022/03/02 00:12:40;;;;;;;27.13;20.23;;;;;;;6.90;53.37;102502.94;5001350;28;20238;-65
2022/03/02 00:15:06;;;;;;;27.43;19.07;;;;;;;6.87;53.58;102501.13;5000658;28;20184;-66
2022/03/02 00:17:32;;;;;;;27.93;19.50;;;;;;;6.86;53.56;102506.19;4986980;28;20188;-66
2022/03/02 00:19:58;;;;;;;27.00;20.53;;;;;;;6.98;53.13;102506.88;4981426;28;20511;-67
2022/03/02 00:22:23;;;;;;;27.47;19.10;;;;;;;6.65;53.97;102500.75;4980556;28;20424;-69
2022/03/02 00:24:51;;;;;;;26.10;19.60;;;;;;;7.38;52.55;102503.72;4981406;28;20187;-67
2022/03/02 00:27:23;;;;;;;24.60;18.50;;;;;;;7.14;53.00;102510.25;5000498;28;20191;-68
2022/03/02 00:29:48;;;;;;;27.00;19.57;;;;;;;6.78;54.44;102511.00;5000407;28;20882;-66
2022/03/02 00:32:13;;;;;;;27.07;20.00;;;;;;;6.83;55.21;102512.13;5000157;28;20419;-67
2022/03/02 00:34:38;;;;;;;26.33;19.77;;;;;;;7.05;53.57;102514.16;5000910;28;20480;-67
2022/03/02 00:37:04;;;;;;;33.33;20.83;;;;;;;7.17;53.48;102508.72;5000151;28;20254;-65
2022/03/02 00:39:29;;;;;;;31.13;20.83;;;;;;;6.90;54.13;102510.72;5000218;28;20184;-66
2022/03/02 00:41:55;;;;;;;31.87;21.37;;;;;;;7.11;53.53;102504.91;5000750;28;20584;-65
2022/03/02 00:44:20;;;;;;;28.30;20.03;;;;;;;7.17;53.39;102503.53;5000045;28;20290;-66
2022/03/02 00:46:46;;;;;;;40.03;20.73;;;;;;;7.12;54.08;102506.66;5000235;28;20599;-66
2022/03/02 00:49:12;;;;;;;29.10;20.17;;;;;;;6.93;54.72;102497.94;4999972;28;20199;-65
2022/03/02 00:51:37;;;;;;;27.37;20.53;;;;;;;6.91;54.87;102496.97;4999894;28;20415;-64
2022/03/02 00:54:03;;;;;;;27.37;20.00;;;;;;;6.87;54.77;102489.84;4999494;28;20427;-66
2022/03/02 00:56:28;;;;;;;26.53;21.30;;;;;;;6.74;54.88;102486.59;4983199;28;20194;-65
2022/03/02 00:58:54;;;;;;;30.30;21.70;;;;;;;6.94;54.99;102479.00;4999786;28;20509;-64
2022/03/02 01:01:19;;;;;;;26.13;21.20;;;;;;;6.67;55.98;102493.94;4999812;28;20593;-66
2022/03/02 01:03:44;;;;;;;26.43;20.70;;;;;;;6.52;56.32;102494.00;4999986;28;20217;-66
2022/03/02 01:06:10;;;;;;;27.20;20.87;;;;;;;6.77;55.82;102491.06;4999689;28;20234;-64
2022/03/02 01:08:35;;;;;;;30.60;22.40;;;;;;;6.56;56.05;102494.28;4999198;28;20250;-66
2022/03/02 01:11:01;;;;;;;30.93;21.73;;;;;;;6.59;55.89;102498.75;5000233;28;20178;-68
2022/03/02 01:13:26;;;;;;;28.90;21.40;;;;;;;6.70;55.59;102492.41;4999512;28;20545;-68
2022/03/02 01:15:51;;;;;;;28.17;21.57;;;;;;;6.61;55.85;102497.09;4999527;28;20179;-67
2022/03/02 01:18:17;;;;;;;32.63;20.17;;;;;;;6.46;56.37;102489.38;4980410;28;20184;-66
2022/03/02 01:20:42;;;;;;;34.17;21.60;;;;;;;6.55;56.24;102492.50;4979262;28;20227;-66
2022/03/02 01:23:08;;;;;;;31.00;21.70;;;;;;;6.62;56.16;102485.06;4979894;28;20180;-65
2022/03/02 01:25:33;;;;;;;15.07;9.30;;;;;;;11.25;60.45;102474.31;4986391;28;20195;-55
2022/03/02 01:27:58;;;;;;;26.60;22.10;;;;;;;9.71;48.17;102471.06;4998922;28;20553;-67
2022/03/02 01:30:24;;;;;;;27.10;20.03;;;;;;;8.47;50.37;102472.63;4998934;28;20258;-68
2022/03/02 01:32:49;;;;;;;26.40;20.23;;;;;;;7.22;53.24;102483.00;4999618;28;20202;-67
2022/03/02 01:35:14;;;;;;;25.23;20.70;;;;;;;6.55;55.02;102483.84;4999294;28;20175;-68
2022/03/02 01:37:40;;;;;;;28.07;21.83;;;;;;;6.50;55.90;102469.72;4998982;28;20183;-68
2022/03/02 01:40:09;;;;;;;26.50;20.00;;;;;;;5.62;56.92;102462.22;4999630;28;20220;-68
2022/03/02 01:42:35;;;;;;;31.60;20.80;;;;;;;5.14;57.35;102467.16;4999028;28;20175;-68
2022/03/02 01:45:03;;;;;;;27.13;21.17;;;;;;;5.29;57.67;102475.84;4999178;28;20429;-67
2022/03/02 01:47:28;;;;;;;28.10;21.00;;;;;;;5.22;58.56;102474.59;4999305;28;20433;-67
2022/03/02 01:49:54;;;;;;;25.90;19.80;;;;;;;5.87;56.86;102472.25;4999065;28;20506;-67
2022/03/02 01:52:19;;;;;;;28.80;21.33;;;;;;;5.70;57.81;102454.09;4998916;28;20190;-67
2022/03/02 01:54:45;;;;;;;28.53;21.17;;;;;;;5.42;57.59;102455.88;4982753;28;20182;-67
2022/03/02 01:57:10;;;;;;;30.67;21.63;;;;;;;5.28;58.16;102455.97;4999026;28;20287;-67
2022/03/02 01:59:36;;;;;;;28.10;22.10;;;;;;;5.97;56.50;102446.09;4998940;28;20184;-68
2022/03/02 02:02:02;;;;;;;27.17;20.53;;;;;;;6.17;55.02;102448.94;4999352;28;20297;-67
2022/03/02 02:04:27;;;;;;;28.63;20.67;;;;;;;6.39;54.80;102441.53;4998036;28;20692;-67
2022/03/02 02:06:53;;;;;;;30.00;21.37;;;;;;;6.44;54.68;102440.88;4998857;28;20262;-67
2022/03/02 02:09:18;;;;;;;28.17;20.30;;;;;;;6.01;55.68;102444.63;4998735;28;20230;-67
2022/03/02 02:11:43;;;;;;;25.87;20.47;;;;;;;6.54;54.88;102436.28;4998812;28;20538;-68
2022/03/02 02:14:09;;;;;;;24.87;19.67;;;;;;;6.40;54.85;102443.31;4998638;28;20191;-67
2022/03/02 02:16:34;;;;;;;27.70;20.20;;;;;;;6.40;54.25;102447.63;4999122;28;20187;-69
2022/03/02 02:18:59;;;;;;;26.97;20.03;;;;;;;6.28;54.62;102444.34;4981526;28;20191;-68
2022/03/02 02:21:27;;;;;;;27.50;20.77;;;;;;;6.22;54.66;102439.72;4998610;28;20168;-68
2022/03/02 02:23:53;;;;;;;28.83;20.63;;;;;;;6.42;54.03;102435.63;4982113;28;20160;-68
2022/03/02 02:26:21;;;;;;;23.10;19.90;;;;;;;6.20;54.94;102431.88;4998626;28;20689;-68
2022/03/02 02:28:47;;;;;;;27.60;20.23;;;;;;;6.05;54.66;102431.91;4998228;28;20302;-68
2022/03/02 02:31:13;;;;;;;30.20;21.03;;;;;;;6.34;54.51;102435.19;4982056;28;20838;-67
2022/03/02 02:33:38;;;;;;;32.83;20.80;;;;;;;6.43;54.56;102436.50;4998622;28;20414;-68
2022/03/02 02:36:04;;;;;;;25.67;19.70;;;;;;;6.26;54.02;102428.72;4998589;28;20186;-67
2022/03/02 02:38:29;;;;;;;23.73;18.83;;;;;;;6.47;53.88;102433.28;4998774;28;20171;-67
2022/03/02 02:40:55;;;;;;;27.47;18.27;;;;;;;6.05;54.62;102426.75;4998420;28;20190;-68
2022/03/02 02:43:23;;;;;;;23.90;19.23;;;;;;;6.03;54.65;102430.03;4998551;28;20187;-68
2022/03/02 02:45:48;;;;;;;25.00;18.70;;;;;;;5.52;55.29;102427.16;4998809;28;20168;-69
2022/03/02 02:48:13;;;;;;;24.90;19.20;;;;;;;4.66;57.60;102431.59;4998113;28;20509;-67
2022/03/02 02:50:39;;;;;;;25.60;19.57;;;;;;;4.87;57.05;102423.34;4998100;28;20434;-68
2022/03/02 02:53:10;;;;;;;27.00;19.50;;;;;;;5.15;57.10;102419.84;4981956;28;20442;-68
2022/03/02 02:55:36;;;;;;;25.00;18.50;;;;;;;5.23;56.87;102413.44;4998267;28;20862;-67
2022/03/02 02:58:02;;;;;;;24.10;18.77;;;;;;;5.08;56.77;102412.53;4998143;28;20810;-67
2022/03/02 03:00:31;;;;;;;26.03;18.50;;;;;;;5.35;56.21;102403.78;4965787;28;20505;-68
2022/03/02 03:02:57;;;;;;;27.23;19.50;;;;;;;5.28;56.56;102408.53;4998144;28;20422;-68
2022/03/02 03:05:25;;;;;;;24.97;19.40;;;;;;;5.49;55.32;102404.56;4998154;28;20722;-67
2022/03/02 03:07:51;;;;;;;24.13;19.77;;;;;;;5.54;55.78;102402.28;4997964;28;20470;-67
2022/03/02 03:10:17;;;;;;;25.53;19.20;;;;;;;6.09;54.68;102403.59;4998299;28;20420;-66
2022/03/02 03:12:43;;;;;;;26.80;19.17;;;;;;;6.08;54.00;102397.53;4998155;28;20441;-67
2022/03/02 03:15:10;;;;;;;26.20;20.30;;;;;;;5.81;54.64;102390.00;4998128;28;20175;-66
2022/03/02 03:17:35;;;;;;;27.10;20.93;;;;;;;5.50;55.52;102396.03;5001263;28;20425;-67
2022/03/02 03:20:02;;;;;;;25.50;19.63;;;;;;;5.06;56.94;102396.94;5002218;28;20411;-66
2022/03/02 03:22:27;;;;;;;23.87;18.20;;;;;;;4.45;57.48;102396.72;5001810;28;20171;-66
2022/03/02 03:24:53;;;;;;;27.77;18.57;;;;;;;4.18;57.87;102395.09;5001679;28;20438;-67
2022/03/02 03:27:18;;;;;;;23.83;18.80;;;;;;;4.59;57.87;102389.78;5001886;28;20445;-68
2022/03/02 03:29:44;;;;;;;21.40;17.53;;;;;;;4.79;57.93;102393.59;4984464;28;20212;-67
2022/03/02 03:32:09;;;;;;;25.73;17.90;;;;;;;5.24;55.36;102394.53;5001613;28;20190;-67
2022/03/02 03:34:34;;;;;;;23.37;18.63;;;;;;;4.54;57.40;102387.81;5001999;28;20175;-67
2022/03/02 03:37:00;;;;;;;23.70;18.03;;;;;;;4.50;57.97;102391.03;5001453;28;20262;-67
2022/03/02 03:39:26;;;;;;;25.80;19.23;;;;;;;4.68;57.83;102388.69;5001440;28;20203;-67
2022/03/02 03:41:52;;;;;;;24.13;19.50;;;;;;;4.97;56.79;102379.19;5002015;28;20171;-67
2022/03/02 03:44:17;;;;;;;21.53;18.07;;;;;;;4.61;57.15;102389.09;5001245;28;20437;-66
2022/03/02 03:46:42;;;;;;;27.40;20.03;;;;;;;5.16;55.84;102381.16;5001257;28;20204;-67
2022/03/02 03:49:09;;;;;;;23.80;18.13;;;;;;;4.85;56.73;102387.09;5001321;28;20195;-66
2022/03/02 03:51:34;;;;;;;24.50;18.67;;;;;;;5.70;54.27;102381.63;5001140;28;20436;-67
2022/03/02 03:54:00;;;;;;;24.93;18.50;;;;;;;5.62;54.72;102384.59;5001095;28;20422;-67
2022/03/02 03:56:25;;;;;;;25.77;19.57;;;;;;;5.55;54.00;102385.94;4984963;28;20183;-68
2022/03/02 03:58:50;;;;;;;26.03;20.00;;;;;;;5.11;55.88;102377.41;4967904;28;20183;-66
2022/03/02 04:01:16;;;;;;;31.43;19.43;;;;;;;5.33;55.29;102376.06;5000912;28;20529;-67
2022/03/02 04:03:41;;;;;;;27.33;20.77;;;;;;;5.23;56.02;102379.81;5001533;28;20403;-66
2022/03/02 04:06:06;;;;;;;24.27;19.07;;;;;;;5.01;57.23;102377.69;5000970;28;20198;-68
2022/03/02 04:08:32;;;;;;;24.57;18.60;;;;;;;4.84;56.03;102374.09;5000571;28;20224;-68
2022/03/02 04:10:57;;;;;;;25.70;18.60;;;;;;;5.19;56.17;102372.69;5001266;28;20178;-66
2022/03/02 04:13:22;;;;;;;22.53;18.27;;;;;;;5.06;56.27;102379.72;5000898;28;20180;-68
2022/03/02 04:15:48;;;;;;;23.13;17.90;;;;;;;5.20;54.04;102366.72;5000789;28;20237;-68
2022/03/02 04:18:13;;;;;;;27.67;18.53;;;;;;;5.35;54.35;102366.72;5000932;28;20467;-67
2022/03/02 04:20:38;;;;;;;22.33;16.13;;;;;;;5.37;54.11;102362.50;5000703;28;20190;-67
2022/03/02 04:23:04;;;;;;;22.67;18.40;;;;;;;5.67;53.67;102359.84;5000762;28;20176;-67
2022/03/02 04:25:30;;;;;;;23.10;17.47;;;;;;;5.22;54.40;102359.91;5001050;28;20183;-67
2022/03/02 04:27:56;;;;;;;23.30;17.90;;;;;;;5.20;54.47;102356.38;4999546;28;20199;-67
2022/03/02 04:30:21;;;;;;;25.50;18.03;;;;;;;4.71;55.81;102360.44;5000509;28;20199;-68
2022/03/02 04:32:47;;;;;;;23.60;17.17;;;;;;;5.04;54.92;102360.63;5000961;28;20814;-68
2022/03/02 04:35:13;;;;;;;22.63;18.20;;;;;;;5.16;54.47;102354.41;5000495;28;20215;-68
2022/03/02 04:37:39;;;;;;;27.60;19.10;;;;;;;5.32;54.75;102349.31;5000144;28;20186;-68
2022/03/02 04:40:06;;;;;;;25.53;18.70;;;;;;;5.59;53.72;102354.28;5001085;28;20254;-69
2022/03/02 04:42:31;;;;;;;27.40;19.70;;;;;;;5.29;54.43;102349.16;4983458;28;20917;-68
2022/03/02 04:44:57;;;;;;;23.30;17.23;;;;;;;5.49;53.88;102357.13;5000055;28;20502;-68
2022/03/02 04:47:22;;;;;;;26.80;19.00;;;;;;;5.17;54.46;102353.63;5000508;28;20171;-68
2022/03/02 04:49:47;;;;;;;22.47;17.30;;;;;;;4.39;56.90;102350.75;4999926;28;20222;-68
2022/03/02 04:52:13;;;;;;;27.23;19.20;;;;;;;5.14;55.72;102350.84;4999997;28;20175;-66
2022/03/02 04:57:22;;;;;;;24.80;18.40;;;;;;;5.21;55.54;102347.81;4999907;28;20237;-68
2022/03/02 04:59:47;;;;;;;26.27;18.90;;;;;;;5.13;55.89;102343.88;5000078;28;20792;-67
2022/03/02 05:02:13;;;;;;;25.80;18.20;;;;;;;4.86;56.25;102342.38;4999977;28;20180;-67
2022/03/02 05:04:38;;;;;;;24.83;17.97;;;;;;;4.87;56.87;102345.84;4999895;28;20171;-68
2022/03/02 05:07:03;;;;;;;27.80;18.67;;;;;;;4.93;56.45;102350.50;4999751;28;20258;-67
2022/03/02 05:09:29;;;;;;;26.10;17.73;;;;;;;5.26;55.27;102355.84;4999642;28;20295;-67
2022/03/02 05:11:54;;;;;;;26.20;19.17;;;;;;;5.30;55.82;102345.75;4999697;28;20546;-68
2022/03/02 05:14:19;;;;;;;24.40;18.37;;;;;;;4.95;57.10;102352.38;5000240;28;20194;-68
2022/03/02 05:16:45;;;;;;;32.13;21.90;;;;;;;4.89;56.93;102346.81;4999794;28;20184;-68
2022/03/02 05:19:10;;;;;;;26.53;19.80;;;;;;;4.89;57.42;102339.06;4999458;28;20534;-67
2022/03/02 05:21:36;;;;;;;26.90;20.30;;;;;;;4.85;57.71;102332.81;5000395;28;20513;-68
2022/03/02 05:24:01;;;;;;;25.77;20.10;;;;;;;4.97;57.53;102327.50;4999332;28;20175;-68
2022/03/02 05:26:26;;;;;;;25.40;18.03;;;;;;;5.02;57.74;102327.75;4999395;28;20186;-68
2022/03/02 05:28:52;;;;;;;26.13;19.70;;;;;;;4.64;58.41;102331.56;4999529;28;20207;-68
2022/03/02 05:31:18;;;;;;;29.97;18.97;;;;;;;4.27;58.28;102335.41;4999345;28;20180;-69
2022/03/02 05:33:44;;;;;;;30.20;19.40;;;;;;;4.22;58.99;102327.38;4999437;28;20237;-68
2022/03/02 05:36:09;;;;;;;95.90;49.60;;;;;;;4.83;58.45;102328.38;5000268;28;20514;-68
2022/03/02 05:38:34;;;;;;;27.13;19.50;;;;;;;4.29;58.14;102328.66;4999370;28;20175;-68
2022/03/02 05:41:00;;;;;;;24.67;17.00;;;;;;;4.11;58.64;102324.94;4999336;28;20190;-67
2022/03/02 05:43:25;;;;;;;37.70;22.90;;;;;;;4.56;58.90;102320.78;4999905;28;20171;-66
2022/03/02 05:45:50;;;;;;;35.70;23.20;;;;;;;4.39;58.49;102322.34;4999139;28;20172;-67
2022/03/02 05:48:15;;;;;;;26.17;19.20;;;;;;;4.70;57.31;102326.78;4998907;28;20215;-69
2022/03/02 05:50:41;;;;;;;29.40;20.50;;;;;;;4.61;57.74;102326.22;4982608;28;20226;-67
2022/03/02 05:53:06;;;;;;;25.10;19.13;;;;;;;4.35;58.35;102343.63;4999541;28;20168;-67
2022/03/02 05:55:31;;;;;;;26.27;20.40;;;;;;;5.02;57.73;102340.66;4999193;28;20451;-66
2022/03/02 05:57:57;;;;;;;24.53;20.07;;;;;;;4.93;57.05;102346.22;4999562;28;20470;-68
2022/03/02 06:00:22;;;;;;;25.50;18.70;;;;;;;4.76;56.41;102346.91;4998764;28;20203;-67
2022/03/02 06:02:47;;;;;;;36.53;19.90;;;;;;;4.65;58.15;102352.31;4998794;28;20237;-67
2022/03/02 06:05:14;;;;;;;26.50;20.03;;;;;;;4.63;58.27;102355.63;4982383;28;20179;-67
2022/03/02 06:07:40;;;;;;;33.67;22.83;;;;;;;4.76;60.70;102350.38;4998483;28;20219;-66
2022/03/02 06:10:06;;;;;;;29.17;21.83;;;;;;;4.84;59.58;102356.91;4998896;28;20422;-66
2022/03/02 06:12:31;;;;;;;35.20;22.37;;;;;;;4.87;59.31;102353.59;4999227;28;20423;-66
2022/03/02 06:14:57;;;;;;;29.80;20.43;;;;;;;4.41;58.74;102344.00;4998714;28;20414;-68
2022/03/02 06:17:23;;;;;;;28.10;20.70;;;;;;;4.12;61.07;102352.53;4998559;28;20438;-67
2022/03/02 06:19:48;;;;;;;28.10;21.53;;;;;;;4.36;61.42;102354.03;4998971;28;20217;-67
2022/03/02 06:22:15;;;;;;;25.93;20.33;;;;;;;4.54;60.32;102353.38;4998643;28;20188;-67
2022/03/02 06:24:41;;;;;;;28.13;20.17;;;;;;;4.64;59.18;102341.88;4998730;28;20547;-67
2022/03/02 06:27:07;;;;;;;27.40;21.10;;;;;;;4.80;59.22;102356.63;4999103;28;20406;-68
2022/03/02 06:29:32;;;;;;;27.30;20.97;;;;;;;4.76;59.05;102358.13;4998412;28;20583;-67
2022/03/02 06:31:57;;;;;;;27.00;20.13;;;;;;;3.58;60.76;102375.81;4998525;28;20266;-67
2022/03/02 06:34:23;;;;;;;28.30;20.47;;;;;;;3.98;60.87;102368.06;4999190;28;20168;-67
2022/03/02 06:36:50;;;;;;;29.40;20.90;;;;;;;4.43;59.75;102357.00;4998546;28;20222;-69
2022/03/02 06:39:18;;;;;;;29.10;20.30;;;;;;;4.86;58.31;102369.91;4998382;28;20283;-67
2022/03/02 06:41:51;;;;;;;29.20;21.37;;;;;;;5.32;57.26;102366.53;4998917;28;20815;-68
2022/03/02 06:44:25;;;;;;;30.97;21.27;;;;;;;5.11;57.50;102366.19;4981653;28;20414;-67
2022/03/02 06:47:10;;;;;;;27.00;20.27;;;;;;;5.16;56.70;102369.94;4998736;28;20502;-69
2022/03/02 06:49:57;;;;;;;44.97;22.80;;;;;;;4.87;58.07;102374.25;4981939;28;20545;-69
2022/03/02 06:52:27;;;;;;;34.53;20.40;;;;;;;4.92;58.13;102379.72;5001866;28;20430;-67
2022/03/02 06:54:54;;;;;;;33.47;22.27;;;;;;;5.03;57.52;102379.56;5002334;28;20818;-67
2022/03/02 06:57:27;;;;;;;30.43;21.77;;;;;;;5.15;57.42;102384.53;5002138;28;20427;-66
2022/03/02 06:59:53;;;;;;;33.27;21.57;;;;;;;5.09;57.61;102389.38;4985312;28;20450;-67
2022/03/02 07:02:43;;;;;;;30.67;21.57;;;;;;;5.02;57.95;102380.34;5002312;28;20509;-67
2022/03/02 07:05:09;;;;;;;29.80;22.00;;;;;;;4.95;57.32;102383.38;4985077;28;20741;-64
2022/03/02 07:07:35;;;;;;;29.73;21.40;;;;;;;5.22;56.25;102376.34;4996304;28;20223;-67
2022/03/02 07:10:00;;;;;;;28.17;19.17;;;;;;;7.24;51.97;102377.63;5001967;28;20466;-68
2022/03/02 07:12:27;;;;;;;28.57;19.03;;;;;;;8.76;48.10;102376.03;5001990;28;20441;-67
2022/03/02 07:14:53;;;;;;;31.17;19.40;;;;;;;9.34;45.28;102374.13;5002035;28;20210;-67
2022/03/02 07:17:18;;;;;;;27.37;19.40;;;;;;;10.07;43.38;102359.63;5001490;28;20521;-68
2022/03/02 07:19:44;;;;;;;24.13;19.03;;;;;;;10.20;43.20;102363.59;5001893;28;20435;-68
2022/03/02 07:22:11;;;;;;;24.50;19.13;;;;;;;10.29;41.96;102365.63;4985331;28;20172;-68
2022/03/02 07:24:42;;;;;;;24.90;19.87;;;;;;;10.25;42.16;102362.00;5001943;28;20202;-67
2022/03/02 07:27:08;;;;;;;23.70;19.87;;;;;;;11.06;40.41;102363.16;5001439;28;20699;-68
2022/03/02 07:29:37;;;;;;;25.00;18.83;;;;;;;11.75;38.67;102358.41;5001923;28;20570;-69
2022/03/02 07:32:03;;;;;;;23.13;20.23;;;;;;;11.33;40.03;102349.25;5001439;28;20414;-67
2022/03/02 07:34:30;;;;;;;25.70;21.17;;;;;;;11.22;40.30;102348.91;5001553;28;20389;-66
2022/03/02 07:36:56;;;;;;;26.27;21.17;;;;;;;10.71;40.59;102349.78;5001768;28;20411;-67
2022/03/02 07:39:22;;;;;;;24.07;20.93;;;;;;;11.68;39.29;102346.88;4984214;28;20835;-67
2022/03/02 07:41:47;;;;;;;22.73;20.43;;;;;;;11.90;38.90;102342.31;5001217;28;20176;-68
2022/03/02 07:44:14;;;;;;;23.23;20.67;;;;;;;12.18;38.13;102349.25;5001718;28;20203;-69
2022/03/02 07:46:39;;;;;;;22.90;20.47;;;;;;;11.33;39.25;102343.16;5001092;28;20401;-68
2022/03/02 07:49:04;;;;;;;24.03;20.00;;;;;;;10.17;41.09;102354.75;5000819;28;20211;-67
2022/03/02 07:51:33;;;;;;;24.33;21.83;;;;;;;11.14;39.68;102346.88;5001752;28;20563;-67
2022/03/02 07:54:04;;;;;;;21.20;18.87;;;;;;;11.72;37.88;102333.06;5001274;28;20191;-68
2022/03/02 07:56:31;;;;;;;23.73;20.20;;;;;;;9.25;41.80;102345.13;5001502;28;20501;-67
2022/03/02 07:59:07;;;;;;;25.70;20.97;;;;;;;8.67;44.47;102346.16;5001128;28;20422;-70
2022/03/02 08:01:36;;;;;;;22.90;20.50;;;;;;;10.62;41.02;102341.63;5000945;28;20418;-69
2022/03/02 08:04:07;;;;;;;23.83;21.07;;;;;;;10.47;41.60;102341.97;5000156;28;20423;-68
2022/03/02 08:06:37;;;;;;;31.70;21.23;;;;;;;12.85;36.73;102327.50;5001206;28;20418;-69
2022/03/02 08:09:04;;;;;;;24.30;20.57;;;;;;;12.05;37.79;102337.53;5000889;28;20574;-68
2022/03/02 08:11:34;;;;;;;24.00;21.37;;;;;;;12.52;37.38;102333.63;5000991;28;20427;-68
2022/03/02 08:14:00;;;;;;;26.43;23.77;;;;;;;13.24;35.88;102345.94;5001032;28;20468;-68
2022/03/02 08:16:27;;;;;;;27.60;22.00;;;;;;;13.29;35.24;102351.31;4983679;28;20798;-70
2022/03/02 08:18:53;;;;;;;24.73;20.40;;;;;;;13.57;34.89;102354.59;5000594;28;20415;-67
2022/03/02 08:21:20;;;;;;;25.13;21.23;;;;;;;13.81;33.90;102347.31;5001420;28;20418;-66
2022/03/02 08:23:49;;;;;;;23.67;21.10;;;;;;;13.63;34.39;102362.63;5001238;28;20178;-67
2022/03/02 08:26:18;;;;;;;24.77;22.03;;;;;;;14.00;33.67;102350.31;5000714;28;20426;-66
2022/03/02 08:28:45;;;;;;;26.50;22.10;;;;;;;14.68;33.01;102354.34;5000750;28;20476;-68
2022/03/02 08:31:11;;;;;;;26.20;21.27;;;;;;;14.47;32.87;102349.53;5000807;28;20744;-67
2022/03/02 08:33:37;;;;;;;24.67;22.07;;;;;;;15.01;30.80;102347.91;5001049;28;20501;-68
2022/03/02 08:36:03;;;;;;;21.43;19.10;;;;;;;12.60;34.46;102347.81;4984215;28;20558;-70
2022/03/02 08:38:28;;;;;;;23.17;20.73;;;;;;;13.60;32.76;102341.59;4983659;28;20168;-68
2022/03/02 08:40:54;;;;;;;23.23;20.30;;;;;;;12.60;33.44;102353.03;5001134;28;20438;-69
2022/03/02 08:43:20;;;;;;;22.10;19.40;;;;;;;13.02;32.76;102352.41;4999324;28;20529;-69
2022/03/02 08:45:47;;;;;;;23.00;19.67;;;;;;;13.34;32.80;102357.56;4991180;28;20183;-68
2022/03/02 08:48:14;;;;;;;21.70;19.40;;;;;;;15.51;29.48;102339.06;4996493;28;20492;-69
2022/03/02 08:50:40;;;;;;;21.73;19.50;;;;;;;14.32;30.95;102343.13;5002397;28;20414;-70
2022/03/02 08:53:06;;;;;;;21.63;19.53;;;;;;;13.39;31.81;102352.44;4983179;28;20466;-70
2022/03/02 08:55:32;;;;;;;25.50;19.33;;;;;;;14.37;29.79;102355.44;5000244;28;20430;-70
2022/03/02 08:57:58;;;;;;;21.43;19.37;;;;;;;15.91;28.43;102346.66;4983662;28;20250;-70
2022/03/02 09:00:24;;;;;;;20.30;18.10;;;;;;;14.25;30.34;102350.84;4999688;28;20473;-68
2022/03/02 09:02:52;;;;;;;20.73;18.67;;;;;;;15.56;28.03;102353.19;5000111;28;20427;-66
2022/03/02 09:05:17;;;;;;;20.13;18.13;;;;;;;16.47;27.03;102343.84;5000321;28;20163;-67
2022/03/02 09:07:42;;;;;;;21.83;19.17;;;;;;;16.58;26.74;102346.56;4983841;28;20489;-67
2022/03/02 09:10:08;;;;;;;21.80;18.93;;;;;;;16.55;26.45;102337.75;5001273;28;20516;-68
2022/03/02 09:12:33;;;;;;;21.73;19.47;;;;;;;16.21;27.15;102335.66;5001657;28;20233;-68
2022/03/02 09:14:59;;;;;;;20.90;18.70;;;;;;;15.39;28.55;102347.66;5000973;28;20179;-69
2022/03/02 09:17:25;;;;;;;21.73;19.47;;;;;;;15.99;27.96;102337.13;5001013;28;20178;-67
2022/03/02 09:19:55;;;;;;;21.90;19.80;;;;;;;15.59;27.63;102344.44;5001265;28;20219;-68
2022/03/02 09:22:25;;;;;;;21.03;18.83;;;;;;;15.82;27.67;102331.66;5000710;28;20655;-68
2022/03/02 09:24:51;;;;;;;21.80;19.67;;;;;;;16.52;27.14;102329.84;5001164;28;20418;-69
2022/03/02 09:27:20;;;;;;;22.43;18.80;;;;;;;16.76;26.47;102321.28;5001285;28;20421;-67
2022/03/02 09:29:47;;;;;;;21.23;19.23;;;;;;;15.71;27.47;102331.47;5000532;28;20227;-68
2022/03/02 09:32:13;;;;;;;21.33;19.23;;;;;;;16.03;27.51;102333.66;5000400;28;20716;-67
2022/03/02 09:34:45;;;;;;;23.10;19.63;;;;;;;16.35;27.32;102333.16;5001167;28;20473;-68
2022/03/02 09:37:13;;;;;;;25.80;20.00;;;;;;;13.73;30.36;102335.75;5000310;28;20720;-67
2022/03/02 09:39:38;;;;;;;22.10;18.73;;;;;;;14.30;28.91;102334.34;5000129;28;20418;-68
2022/03/02 09:42:10;;;;;;;22.33;17.40;;;;;;;12.86;30.08;102342.38;5000489;28;20477;-67
2022/03/02 09:44:46;;;;;;;18.53;16.60;;;;;;;13.75;28.52;102334.06;4999858;28;20176;-70
2022/03/02 09:47:18;;;;;;;17.73;16.03;;;;;;;14.47;27.83;102331.16;5000386;28;20432;-70
2022/03/02 09:49:50;;;;;;;17.70;15.90;;;;;;;16.74;25.48;102328.31;5000248;28;20528;-68
2022/03/02 09:52:18;;;;;;;19.40;17.33;;;;;;;16.76;25.55;102322.16;4983407;28;20506;-68
2022/03/02 09:54:46;;;;;;;19.77;17.67;;;;;;;15.08;26.70;102322.63;4999660;28;20497;-70
2022/03/02 09:57:11;;;;;;;17.07;15.37;;;;;;;14.08;26.68;102322.50;4999885;28;20422;-67
2022/03/02 09:59:38;;;;;;;18.77;16.90;;;;;;;14.09;27.14;102326.03;4982738;28;20423;-66
2022/03/02 10:02:10;;;;;;;18.40;16.40;;;;;;;12.88;29.86;102311.88;4998711;28;20193;-65
2022/03/02 10:04:36;;;;;;;18.40;16.63;;;;;;;14.55;27.82;102310.31;4999322;28;20422;-67
2022/03/02 10:09:52;;;;;;;17.67;16.07;;;;;;;17.41;24.18;102275.25;4998545;28;20481;-69
2022/03/02 10:12:20;;;;;;;19.93;17.10;;;;;;;15.25;27.05;102291.34;4981722;28;20449;-68
2022/03/02 10:14:48;;;;;;;18.80;16.90;;;;;;;15.69;26.34;102291.13;4998653;28;20746;-69
2022/03/02 10:17:19;;;;;;;18.43;16.67;;;;;;;15.67;25.45;102290.22;4998283;28;20414;-70
2022/03/02 10:19:53;;;;;;;19.07;17.17;;;;;;;16.99;23.82;102282.91;4998479;28;20422;-70
2022/03/02 10:22:39;;;;;;;18.53;16.53;;;;;;;13.97;27.42;102300.44;4998585;28;20712;-69
2022/03/02 10:25:10;;;;;;;19.00;16.50;;;;;;;16.61;24.47;102287.81;4997814;28;20442;-69
2022/03/02 10:28:02;;;;;;;18.23;16.10;;;;;;;16.61;24.69;102286.03;4998033;28;20422;-69
2022/03/02 10:30:41;;;;;;;17.53;15.83;;;;;;;16.90;23.70;102279.28;4985606;28;20768;-69
2022/03/02 10:33:24;;;;;;;16.60;15.00;;;;;;;16.83;24.21;102276.59;4998372;28;20434;-70
2022/03/02 10:36:03;;;;;;;17.43;15.73;;;;;;;14.15;26.63;102292.97;4998354;28;20430;-69
2022/03/02 10:38:48;;;;;;;16.77;15.07;;;;;;;13.43;27.73;102294.91;4998229;28;20434;-69
2022/03/02 10:41:14;;;;;;;16.40;14.80;;;;;;;14.44;26.38;102292.63;4998223;28;20464;-68
2022/03/02 10:43:48;;;;;;;18.23;16.37;;;;;;;16.14;24.76;102282.06;4998080;28;20425;-69
2022/03/02 10:46:19;;;;;;;17.57;15.40;;;;;;;16.46;24.50;102286.78;4998088;28;20419;-69
2022/03/02 10:49:04;;;;;;;17.53;15.83;;;;;;;16.33;24.17;102279.63;4998182;28;20726;-71
2022/03/02 10:51:31;;;;;;;17.53;15.93;;;;;;;15.53;25.61;102282.13;4998135;28;20425;-69
2022/03/02 10:54:03;;;;;;;17.57;15.73;;;;;;;15.72;25.16;102285.91;4998193;28;20509;-69
2022/03/02 10:56:29;;;;;;;23.70;15.87;;;;;;;14.68;27.85;102293.97;4998108;28;20452;-70
2022/03/02 10:58:55;;;;;;;18.23;15.93;;;;;;;13.30;28.78;102292.81;4998024;28;20430;-71
2022/03/02 11:01:21;;;;;;;18.00;16.10;;;;;;;14.52;26.11;102291.88;4998357;28;20411;-70
2022/03/02 11:03:47;;;;;;;19.27;15.97;;;;;;;16.18;24.80;102269.81;4997936;28;20198;-71
2022/03/02 11:06:12;;;;;;;16.70;15.10;;;;;;;15.94;24.45;102268.69;4998117;28;20684;-69
2022/03/02 11:08:38;;;;;;;16.43;14.83;;;;;;;14.47;26.13;102276.91;4997567;28;20581;-68
2022/03/02 11:11:06;;;;;;;18.20;15.67;;;;;;;13.58;27.66;102275.16;4980970;28;20183;-68
2022/03/02 11:13:31;;;;;;;18.07;15.93;;;;;;;11.50;30.95;102289.75;4998197;28;20176;-69
2022/03/02 11:16:00;;;;;;;17.73;16.03;;;;;;;14.79;26.40;102267.91;4998066;28;20469;-68
2022/03/02 11:18:46;;;;;;;19.17;17.13;;;;;;;14.80;26.77;102265.31;4997539;28;20190;-69